Time;durP1;ratioP1;P1;durP2;ratioP2;P2;SDS_P1;SDS_P2;PMS_P1;PMS_P2;Temp;Humidity;BMP_temperature;BMP_pressure;BME280_temperature;BME280_humidity;BME280_pressure;Samples;Min_cycle;Max_cycle;Signal;HPM_P1;HPM_P2
2021/08/30 00:01:54;;;;;;;14.05;11.20;;;14.10;72.00;;;;;;5079813;28;20063;-70
2021/08/30 00:04:23;;;;;;;16.70;11.93;;;14.10;72.10;;;;;;5077280;28;20055;-70
2021/08/30 00:06:51;;;;;;;16.50;11.93;;;14.10;72.10;;;;;;5074989;28;20044;-70
2021/08/30 00:09:19;;;;;;;16.45;12.25;;;14.10;72.10;;;;;;5063857;28;20435;-70
2021/08/30 00:11:47;;;;;;;15.88;11.55;;;14.10;72.10;;;;;;5081603;28;20044;-70
2021/08/30 00:14:15;;;;;;;17.52;12.82;;;14.10;72.10;;;;;;5079342;28;20048;-70
2021/08/30 00:16:44;;;;;;;17.80;11.75;;;14.10;72.10;;;;;;5078235;28;20090;-69
2021/08/30 00:19:12;;;;;;;18.35;12.88;;;14.10;72.10;;;;;;5077746;28;20040;-70
2021/08/30 00:21:40;;;;;;;17.83;12.52;;;14.10;72.10;;;;;;5074825;28;20094;-70
2021/08/30 00:24:08;;;;;;;16.42;12.75;;;14.10;72.10;;;;;;5076474;28;20098;-70
2021/08/30 00:26:36;;;;;;;15.82;12.57;;;14.10;72.10;;;;;;5081034;28;20056;-70
2021/08/30 00:29:04;;;;;;;18.33;13.32;;;14.10;72.10;;;;;;5079875;28;20068;-71
2021/08/30 00:31:32;;;;;;;15.27;12.57;;;14.10;72.10;;;;;;5080731;28;20093;-70
2021/08/30 00:34:15;;;;;;;16.10;13.32;;;14.10;72.10;;;;;;5079300;28;20086;-70
2021/08/30 00:36:43;;;;;;;18.52;13.50;;;14.10;72.10;;;;;;5078242;28;20048;-70
2021/08/30 00:39:11;;;;;;;20.23;13.85;;;14.10;72.10;;;;;;5079852;28;20472;-70
2021/08/30 00:41:39;;;;;;;18.27;13.52;;;14.10;72.10;;;;;;5083256;28;20048;-70
2021/08/30 00:44:08;;;;;;;18.50;14.75;;;14.10;72.10;;;;;;5078925;28;20040;-70
2021/08/30 00:46:36;;;;;;;20.08;13.70;;;14.20;72.30;;;;;;5080194;28;20036;-70
2021/08/30 00:49:04;;;;;;;20.30;14.38;;;14.10;72.10;;;;;;5082926;28;20533;-70
2021/08/30 00:51:34;;;;;;;18.70;14.57;;;14.10;72.10;;;;;;5083383;28;20048;-70
2021/08/30 00:54:03;;;;;;;18.33;13.98;;;14.10;71.90;;;;;;5076934;28;20055;-70
2021/08/30 00:56:32;;;;;;;20.30;14.32;;;14.10;71.90;;;;;;5064435;28;20659;-70
2021/08/30 00:59:00;;;;;;;18.23;14.13;;;14.10;71.90;;;;;;5081827;28;20123;-70
2021/08/30 01:01:28;;;;;;;18.17;13.63;;;14.10;71.80;;;;;;5085630;28;20047;-70
2021/08/30 01:03:57;;;;;;;19.27;14.38;;;14.10;71.90;;;;;;5080520;28;20048;-70
2021/08/30 01:06:31;;;;;;;17.23;13.65;;;14.10;71.90;;;;;;5063278;28;20050;-70
2021/08/30 01:09:07;;;;;;;19.75;13.45;;;14.10;71.70;;;;;;5081378;28;20483;-70
2021/08/30 01:11:43;;;;;;;17.85;13.75;;;14.10;71.40;;;;;;5084135;28;20067;-70
2021/08/30 01:14:14;;;;;;;16.42;13.63;;;14.10;71.30;;;;;;5076036;28;20052;-70
2021/08/30 01:16:43;;;;;;;17.20;13.55;;;14.10;71.50;;;;;;5085788;28;20184;-70
2021/08/30 01:19:18;;;;;;;19.50;14.00;;;14.10;71.40;;;;;;5078012;28;20133;-70
2021/08/30 01:21:48;;;;;;;19.70;14.82;;;14.10;71.40;;;;;;5084662;28;21039;-69
2021/08/30 01:24:20;;;;;;;19.75;13.85;;;14.10;71.40;;;;;;5058197;28;20507;-69
2021/08/30 01:26:50;;;;;;;20.00;14.07;;;14.10;71.20;;;;;;5082076;28;20044;-69
2021/08/30 01:29:25;;;;;;;19.27;14.40;;;14.10;71.10;;;;;;5077590;28;20051;-70
2021/08/30 01:32:04;;;;;;;18.30;13.43;;;14.10;71.00;;;;;;5067328;28;20044;-69
2021/08/30 01:34:34;;;;;;;;;;;14.10;70.70;;;;;;5077275;28;20051;-70
2021/08/30 01:37:03;;;;;;;21.92;12.85;;;14.10;70.90;;;;;;5079635;28;19974;-69
2021/08/30 01:39:32;;;;;;;18.67;13.55;;;14.10;70.90;;;;;;5076979;28;20056;-69
2021/08/30 01:42:02;;;;;;;17.95;11.77;;;14.10;71.00;;;;;;5080430;28;20044;-69
2021/08/30 01:44:31;;;;;;;15.48;12.23;;;14.10;70.90;;;;;;5079329;28;20487;-69
2021/08/30 01:47:00;;;;;;;15.68;11.57;;;14.00;70.60;;;;;;5084221;28;20054;-69
2021/08/30 01:49:30;;;;;;;15.70;12.57;;;14.10;71.00;;;;;;5081267;28;20126;-69
2021/08/30 01:52:00;;;;;;;14.65;12.20;;;14.10;70.90;;;;;;5077367;28;20097;-69
2021/08/30 01:54:29;;;;;;;15.73;12.45;;;14.10;71.00;;;;;;5076829;28;20101;-69
2021/08/30 01:56:58;;;;;;;14.57;11.95;;;14.10;70.60;;;;;;5081101;28;20131;-69
2021/08/30 02:02:13;;;;;;;13.95;11.55;;;14.10;70.50;;;;;;5081436;28;20048;-69
2021/08/30 02:04:41;;;;;;;14.55;11.77;;;14.00;70.60;;;;;;5072348;28;20048;-69
2021/08/30 02:07:11;;;;;;;16.85;13.15;;;14.00;70.90;;;;;;5081344;28;20044;-69
2021/08/30 02:09:39;;;;;;;15.35;12.90;;;14.00;70.60;;;;;;5078781;28;20462;-69
2021/08/30 02:12:08;;;;;;;18.48;13.35;;;14.00;70.80;;;;;;5083642;28;20419;-69
2021/08/30 02:14:36;;;;;;;17.65;13.48;;;14.00;71.10;;;;;;5075915;28;20044;-70
2021/08/30 02:17:08;;;;;;;15.65;12.52;;;14.00;71.20;;;;;;5080347;28;20048;-70
2021/08/30 02:19:44;;;;;;;18.17;13.05;;;14.00;71.50;;;;;;5079744;28;20048;-70
2021/08/30 02:22:18;;;;;;;18.20;13.02;;;13.90;71.50;;;;;;5084475;28;20051;-70
2021/08/30 02:24:50;;;;;;;16.20;12.32;;;14.00;71.70;;;;;;5061644;28;20743;-71
2021/08/30 02:27:24;;;;;;;16.98;12.80;;;14.00;71.80;;;;;;5084937;28;20036;-72
2021/08/30 02:29:58;;;;;;;18.02;12.88;;;14.00;71.80;;;;;;5058969;28;20058;-71
2021/08/30 02:32:28;;;;;;;15.10;11.68;;;13.90;71.80;;;;;;5083378;28;20047;-71
2021/08/30 02:35:00;;;;;;;17.92;11.40;;;13.90;71.80;;;;;;5077002;28;20071;-71
2021/08/30 02:37:32;;;;;;;16.77;11.73;;;14.00;71.90;;;;;;5083137;28;20131;-71
2021/08/30 02:40:01;;;;;;;13.57;11.10;;;14.00;72.00;;;;;;5082648;28;20067;-71
2021/08/30 02:42:32;;;;;;;15.65;11.02;;;13.90;72.00;;;;;;5082439;28;20051;-71
2021/08/30 02:45:01;;;;;;;14.27;11.10;;;13.90;72.00;;;;;;5078564;28;20082;-71
2021/08/30 02:47:31;;;;;;;13.07;10.55;;;13.90;72.00;;;;;;5078488;28;20086;-70
2021/08/30 02:50:01;;;;;;;15.00;11.15;;;14.00;72.10;;;;;;5078508;28;20040;-71
2021/08/30 02:52:31;;;;;;;13.50;10.15;;;13.90;72.00;;;;;;5084379;28;20123;-70
2021/08/30 02:55:00;;;;;;;12.77;9.90;;;13.90;72.00;;;;;;5079877;28;20045;-70
2021/08/30 02:57:29;;;;;;;13.43;10.20;;;13.90;72.00;;;;;;5083212;28;20488;-71
2021/08/30 02:59:59;;;;;;;13.40;10.50;;;13.90;72.00;;;;;;5082507;28;20069;-71
2021/08/30 03:02:28;;;;;;;12.15;10.20;;;13.90;72.00;;;;;;5082519;28;20079;-71
2021/08/30 03:04:58;;;;;;;12.80;10.40;;;13.90;72.00;;;;;;5077575;28;20067;-70
2021/08/30 03:07:30;;;;;;;12.80;9.88;;;13.90;72.10;;;;;;5061516;28;20114;-71
2021/08/30 03:10:00;;;;;;;13.85;10.48;;;13.90;72.10;;;;;;5077724;28;20048;-71
2021/08/30 03:12:31;;;;;;;12.63;9.45;;;13.90;72.10;;;;;;5057990;28;20083;-71
2021/08/30 03:15:03;;;;;;;14.35;10.63;;;13.90;72.10;;;;;;5076992;28;20060;-71
2021/08/30 03:17:32;;;;;;;12.57;10.43;;;13.90;72.00;;;;;;5082885;28;20044;-71
2021/08/30 03:20:02;;;;;;;13.90;10.80;;;13.90;72.10;;;;;;5062273;28;20101;-71
2021/08/30 03:22:33;;;;;;;13.48;11.38;;;13.90;72.70;;;;;;5079424;28;20466;-71
2021/08/30 03:25:03;;;;;;;15.13;11.80;;;13.90;72.00;;;;;;5056982;28;20055;-71
2021/08/30 03:27:32;;;;;;;14.27;11.75;;;14.00;72.10;;;;;;5077763;28;20048;-70
2021/08/30 03:30:01;;;;;;;15.57;12.07;;;14.00;72.10;;;;;;5079577;28;20106;-70
2021/08/30 03:32:29;;;;;;;17.42;13.20;;;14.00;72.20;;;;;;5078400;28;20984;-70
2021/08/30 03:34:58;;;;;;;16.42;13.25;;;14.00;72.20;;;;;;5075095;28;20128;-70
2021/08/30 03:37:26;;;;;;;17.08;13.10;;;14.00;72.20;;;;;;5079662;28;20044;-70
2021/08/30 03:39:57;;;;;;;16.50;13.35;;;13.90;72.10;;;;;;5082654;28;20054;-70
2021/08/30 03:42:26;;;;;;;18.25;13.80;;;13.90;72.10;;;;;;5079672;28;20074;-70
2021/08/30 03:44:55;;;;;;;18.52;14.07;;;14.00;72.30;;;;;;5076206;28;20101;-70
2021/08/30 03:47:23;;;;;;;20.42;14.65;;;14.00;72.30;;;;;;5081396;28;20076;-70
2021/08/30 03:49:53;;;;;;;19.17;14.32;;;14.00;72.30;;;;;;5076760;28;20524;-70
2021/08/30 03:52:22;;;;;;;18.48;13.70;;;14.00;72.30;;;;;;5081805;28;20056;-70
2021/08/30 03:54:50;;;;;;;20.48;15.20;;;14.00;72.30;;;;;;5068223;28;20090;-70
2021/08/30 03:57:21;;;;;;;20.30;14.05;;;14.00;72.30;;;;;;5081950;28;20128;-70
2021/08/30 03:59:55;;;;;;;22.42;14.93;;;14.00;72.40;;;;;;5078671;28;20052;-70
2021/08/30 04:02:24;;;;;;;22.92;14.80;;;14.00;72.40;;;;;;5079612;28;20113;-70
2021/08/30 04:04:54;;;;;;;23.33;15.15;;;14.00;72.40;;;;;;5058133;28;20081;-70
2021/08/30 04:07:23;;;;;;;18.85;13.85;;;14.00;72.50;;;;;;5077974;28;20051;-70
2021/08/30 04:09:52;;;;;;;19.40;13.55;;;14.00;72.50;;;;;;5075725;28;20127;-70
2021/08/30 04:12:22;;;;;;;21.60;15.38;;;14.10;72.60;;;;;;5077359;28;20106;-70
2021/08/30 04:14:51;;;;;;;19.08;14.35;;;14.00;72.50;;;;;;5057232;28;20315;-70
2021/08/30 04:17:20;;;;;;;19.77;14.07;;;14.10;72.60;;;;;;5081802;28;20044;-70
2021/08/30 04:19:48;;;;;;;19.45;14.05;;;14.10;72.70;;;;;;5084445;28;20079;-70
2021/08/30 04:22:16;;;;;;;18.70;13.50;;;14.10;72.70;;;;;;5086162;28;20052;-70
2021/08/30 04:24:44;;;;;;;21.10;14.18;;;14.10;72.70;;;;;;5082327;28;20056;-70
2021/08/30 04:27:12;;;;;;;19.40;14.88;;;14.10;72.80;;;;;;5080236;28;20130;-70
2021/08/30 04:29:43;;;;;;;19.98;14.23;;;14.10;72.70;;;;;;5082609;28;20044;-70
2021/08/30 04:32:12;;;;;;;21.20;15.02;;;14.10;72.70;;;;;;5081702;28;20051;-70
2021/08/30 04:34:41;;;;;;;26.77;14.70;;;14.10;72.70;;;;;;5081826;28;20068;-70
2021/08/30 04:37:10;;;;;;;21.70;15.77;;;14.10;72.70;;;;;;5066703;28;20551;-70
2021/08/30 04:39:38;;;;;;;23.05;14.00;;;14.10;72.70;;;;;;5087005;28;20551;-70
2021/08/30 04:42:06;;;;;;;24.77;14.80;;;14.10;72.80;;;;;;5090632;28;20059;-70
2021/08/30 04:44:34;;;;;;;24.35;14.98;;;14.10;72.70;;;;;;5081317;28;20044;-70
2021/08/30 04:47:06;;;;;;;22.35;14.80;;;14.10;72.70;;;;;;5084867;28;20048;-70
2021/08/30 04:49:35;;;;;;;21.00;15.02;;;14.20;72.90;;;;;;5085566;28;20135;-70
2021/08/30 04:52:03;;;;;;;23.88;14.18;;;14.10;72.70;;;;;;5087447;28;20044;-70
2021/08/30 04:54:31;;;;;;;23.23;14.60;;;14.10;72.70;;;;;;5081278;28;20044;-70
2021/08/30 04:57:00;;;;;;;18.75;13.73;;;14.10;72.80;;;;;;5087665;28;20082;-70
2021/08/30 04:59:28;;;;;;;21.27;15.02;;;14.10;72.80;;;;;;5068012;28;20047;-70
2021/08/30 05:01:56;;;;;;;21.95;13.57;;;14.20;73.00;;;;;;5084141;28;20123;-70
2021/08/30 05:04:27;;;;;;;19.58;14.00;;;14.10;72.90;;;;;;5081881;28;20059;-70
2021/08/30 05:06:55;;;;;;;20.77;13.88;;;14.10;72.90;;;;;;5085086;28;20051;-70
2021/08/30 05:09:23;;;;;;;21.08;15.30;;;14.10;72.90;;;;;;5080124;28;20040;-70
2021/08/30 05:11:51;;;;;;;20.65;14.15;;;14.20;73.00;;;;;;5084732;28;20187;-71
2021/08/30 05:14:19;;;;;;;20.88;14.55;;;14.20;73.00;;;;;;5083578;28;20380;-71
2021/08/30 05:16:47;;;;;;;23.10;15.35;;;14.20;73.00;;;;;;5070221;28;20047;-71
2021/08/30 05:19:15;;;;;;;20.60;14.32;;;14.20;73.00;;;;;;5085327;28;20127;-71
2021/08/30 05:21:45;;;;;;;20.38;14.30;;;14.20;73.00;;;;;;5082614;28;20055;-71
2021/08/30 05:24:13;;;;;;;22.10;14.45;;;14.10;72.90;;;;;;5081882;28;20105;-71
2021/08/30 05:26:41;;;;;;;21.08;14.65;;;14.10;72.90;;;;;;5081667;28;20043;-70
2021/08/30 05:29:09;;;;;;;21.80;14.00;;;14.10;72.90;;;;;;5079956;28;20067;-72
2021/08/30 05:31:37;;;;;;;21.83;15.27;;;14.20;73.00;;;;;;5083477;28;20126;-71
2021/08/30 05:34:05;;;;;;;21.60;14.90;;;14.20;73.10;;;;;;5080444;28;20039;-69
2021/08/30 05:36:33;;;;;;;19.83;14.52;;;14.20;73.00;;;;;;5079030;28;20085;-69
2021/08/30 05:39:03;;;;;;;22.65;16.05;;;14.20;73.00;;;;;;5078121;28;20385;-71
2021/08/30 05:41:31;;;;;;;21.80;15.80;;;14.20;73.00;;;;;;5080948;28;20078;-71
2021/08/30 05:43:59;;;;;;;24.88;16.10;;;14.20;73.30;;;;;;5080837;28;20048;-71
2021/08/30 05:46:27;;;;;;;22.92;15.85;;;14.20;73.30;;;;;;5079865;28;20052;-71
2021/08/30 05:48:55;;;;;;;22.30;15.85;;;14.30;73.40;;;;;;5080608;28;20507;-71
2021/08/30 05:51:24;;;;;;;19.42;14.65;;;14.30;73.50;;;;;;5086489;28;20740;-71
2021/08/30 05:53:52;;;;;;;21.33;14.68;;;14.30;73.60;;;;;;5080474;28;20582;-71
2021/08/30 05:56:21;;;;;;;23.63;14.98;;;14.40;73.70;;;;;;5077803;28;20484;-71
2021/08/30 05:58:49;;;;;;;19.60;14.68;;;14.30;73.10;;;;;;5079837;28;20101;-71
2021/08/30 06:01:18;;;;;;;20.02;15.38;;;14.50;73.50;;;;;;5081401;28;20056;-71
2021/08/30 06:03:46;;;;;;;19.83;14.23;;;14.40;72.60;;;;;;5064948;28;20744;-71
2021/08/30 06:06:14;;;;;;;20.63;14.80;;;14.50;72.70;;;;;;5079356;28;20097;-71
2021/08/30 06:08:42;;;;;;;20.13;14.90;;;14.60;72.30;;;;;;5075347;28;20048;-71
2021/08/30 06:11:11;;;;;;;17.95;14.05;;;14.70;72.30;;;;;;5079066;28;20125;-71
2021/08/30 06:13:40;;;;;;;18.73;13.95;;;14.70;71.50;;;;;;5073960;28;20600;-70
2021/08/30 06:16:08;;;;;;;17.67;12.50;;;14.70;70.60;;;;;;5075376;28;20048;-70
2021/08/30 06:18:36;;;;;;;17.02;12.90;;;14.80;70.20;;;;;;5080854;28;20044;-70
2021/08/30 06:21:04;;;;;;;16.55;12.65;;;15.00;67.30;;;;;;5081537;28;20052;-71
2021/08/30 06:23:33;;;;;;;17.10;12.70;;;15.20;67.70;;;;;;5079773;28;20043;-71
2021/08/30 06:26:01;;;;;;;14.02;11.82;;;15.00;66.80;;;;;;5077008;28;20474;-71
2021/08/30 06:28:29;;;;;;;14.35;12.20;;;15.00;66.30;;;;;;5076179;28;20492;-70
2021/08/30 06:30:58;;;;;;;14.02;11.93;;;15.00;67.70;;;;;;5084072;28;20407;-71
2021/08/30 06:33:26;;;;;;;15.02;11.95;;;15.00;67.70;;;;;;5066754;28;20044;-71
2021/08/30 06:35:55;;;;;;;14.70;11.70;;;14.90;66.30;;;;;;5077930;28;20044;-70
2021/08/30 06:38:23;;;;;;;14.80;12.00;;;15.00;68.40;;;;;;5078727;28;20044;-71
2021/08/30 06:40:53;;;;;;;13.77;11.80;;;15.00;66.40;;;;;;5078551;28;20465;-70
2021/08/30 06:43:21;;;;;;;16.45;11.40;;;15.00;66.10;;;;;;5078802;28;20550;-70
2021/08/30 06:45:49;;;;;;;14.75;12.02;;;15.00;67.10;;;;;;5079642;28;20107;-70
2021/08/30 06:48:19;;;;;;;15.15;11.57;;;15.00;66.40;;;;;;5077016;28;20524;-70
2021/08/30 06:50:48;;;;;;;16.13;12.23;;;14.90;66.80;;;;;;5081024;28;20125;-71
2021/08/30 06:53:16;;;;;;;15.40;12.50;;;14.90;67.40;;;;;;5082626;28;20463;-71
2021/08/30 06:55:44;;;;;;;16.25;12.15;;;14.90;67.00;;;;;;5071826;28;20040;-71
2021/08/30 06:58:12;;;;;;;15.40;12.35;;;14.90;67.60;;;;;;5080483;28;20040;-71
2021/08/30 07:00:40;;;;;;;13.55;11.88;;;14.90;67.50;;;;;;5084077;28;20560;-72
2021/08/30 07:03:08;;;;;;;15.05;12.70;;;14.80;67.10;;;;;;5080451;28;20101;-71
2021/08/30 07:05:38;;;;;;;17.85;13.57;;;14.90;67.50;;;;;;5071781;28;20044;-70
2021/08/30 07:08:06;;;;;;;15.90;13.02;;;15.00;67.50;;;;;;5076907;28;20045;-70
2021/08/30 07:10:34;;;;;;;14.15;12.15;;;14.90;66.50;;;;;;5060007;28;20052;-70
2021/08/30 07:13:03;;;;;;;15.27;12.27;;;15.00;66.70;;;;;;5082214;28;20460;-70
2021/08/30 07:15:31;;;;;;;16.92;12.60;;;15.00;66.40;;;;;;5073016;28;20044;-70
2021/08/30 07:17:59;;;;;;;15.98;12.95;;;15.00;66.80;;;;;;5079111;28;20135;-70
2021/08/30 07:20:29;;;;;;;17.17;13.65;;;15.00;67.70;;;;;;5082561;28;20814;-70
2021/08/30 07:23:00;;;;;;;16.20;12.50;;;15.10;68.40;;;;;;5081171;28;20092;-70
2021/08/30 07:25:28;;;;;;;15.15;12.98;;;15.10;67.00;;;;;;5074493;28;20135;-70
2021/08/30 07:27:56;;;;;;;16.02;12.68;;;15.10;67.00;;;;;;5079965;28;20055;-70
2021/08/30 07:30:24;;;;;;;15.32;11.85;;;15.20;67.60;;;;;;5083354;28;20172;-70
2021/08/30 07:32:53;;;;;;;15.07;11.25;;;15.20;66.40;;;;;;5083060;28;20047;-70
2021/08/30 07:35:22;;;;;;;14.32;11.75;;;15.30;67.20;;;;;;5074618;28;21130;-70
2021/08/30 07:37:50;;;;;;;14.10;11.50;;;15.30;67.10;;;;;;5078172;28;20502;-70
2021/08/30 07:40:19;;;;;;;13.95;11.82;;;15.40;66.70;;;;;;5078996;28;20059;-70
2021/08/30 07:42:50;;;;;;;14.20;10.52;;;15.40;65.80;;;;;;5062872;28;20094;-71
2021/08/30 07:45:19;;;;;;;12.93;10.40;;;15.40;65.50;;;;;;5071607;28;20098;-69
2021/08/30 07:47:47;;;;;;;13.05;10.77;;;15.20;65.70;;;;;;5079147;28;20036;-69
2021/08/30 07:50:16;;;;;;;13.05;11.43;;;15.20;66.60;;;;;;5083140;28;20055;-69
2021/08/30 07:52:44;;;;;;;13.93;10.60;;;15.10;67.40;;;;;;5078235;28;20048;-69
2021/08/30 07:55:13;;;;;;;13.15;11.20;;;15.10;68.00;;;;;;5074969;28;20051;-69
2021/08/30 07:57:43;;;;;;;12.43;11.13;;;15.00;67.20;;;;;;5079583;28;20032;-70
2021/08/30 08:00:13;;;;;;;13.43;11.63;;;15.10;67.80;;;;;;5082252;28;20056;-70
2021/08/30 08:02:41;;;;;;;13.40;11.73;;;15.10;67.90;;;;;;5059680;28;20044;-70
2021/08/30 08:05:10;;;;;;;14.48;11.57;;;15.10;68.80;;;;;;5056480;28;20059;-71
2021/08/30 08:07:39;;;;;;;15.23;11.13;;;15.00;69.00;;;;;;5077151;28;20152;-70
2021/08/30 08:10:08;;;;;;;14.10;11.32;;;15.10;70.00;;;;;;5082185;28;20040;-70
2021/08/30 08:12:37;;;;;;;15.48;11.63;;;15.00;69.30;;;;;;5079601;28;20128;-73
2021/08/30 08:15:08;;;;;;;11.45;9.88;;;15.00;70.20;;;;;;5077884;28;20040;-72
2021/08/30 08:17:37;;;;;;;18.30;11.40;;;15.00;69.20;;;;;;5080145;28;20039;-70
2021/08/30 08:20:07;;;;;;;21.58;11.68;;;15.10;70.50;;;;;;5078030;28;20573;-71
2021/08/30 08:22:42;;;;;;;15.77;11.68;;;15.20;70.60;;;;;;5076586;28;20045;-69
2021/08/30 08:25:11;;;;;;;15.57;11.40;;;15.10;70.90;;;;;;5077144;28;20044;-71
2021/08/30 08:27:40;;;;;;;13.60;11.45;;;15.00;71.10;;;;;;5076861;28;20040;-72
2021/08/30 08:30:10;;;;;;;11.98;9.90;;;15.00;71.80;;;;;;5079538;28;20128;-70
2021/08/30 08:32:41;;;;;;;12.55;10.18;;;14.90;72.00;;;;;;5082340;28;20043;-70
2021/08/30 08:35:09;;;;;;;13.00;9.95;;;14.90;72.00;;;;;;5079157;28;20044;-71
2021/08/30 08:37:38;;;;;;;12.88;10.52;;;14.90;72.40;;;;;;5075782;28;20224;-71
2021/08/30 08:40:08;;;;;;;12.95;9.98;;;14.90;72.30;;;;;;5077380;28;20111;-70
2021/08/30 08:42:39;;;;;;;15.48;11.00;;;15.10;72.00;;;;;;5046143;28;20036;-70
2021/08/30 08:45:10;;;;;;;11.07;9.38;;;15.30;72.40;;;;;;5072731;28;20085;-70
2021/08/30 08:47:39;;;;;;;12.02;9.82;;;15.30;69.80;;;;;;5079476;28;20127;-70
2021/08/30 08:50:11;;;;;;;12.95;10.82;;;15.60;71.00;;;;;;5073998;28;20044;-71
2021/08/30 08:52:41;;;;;;;11.80;9.80;;;15.70;68.90;;;;;;5079179;28;20053;-70
2021/08/30 08:55:09;;;;;;;12.80;10.32;;;15.70;67.60;;;;;;5078691;28;20070;-70
2021/08/30 08:57:38;;;;;;;12.13;9.77;;;15.70;67.10;;;;;;5074810;28;20044;-70
2021/08/30 09:00:10;;;;;;;12.98;10.35;;;15.50;65.90;;;;;;5078456;28;20052;-71
2021/08/30 09:02:38;;;;;;;10.40;9.27;;;15.80;67.00;;;;;;5077746;28;20101;-70
2021/08/30 09:05:09;;;;;;;11.48;9.82;;;15.80;64.70;;;;;;5080438;28;20047;-71
2021/08/30 09:07:40;;;;;;;12.55;9.80;;;16.00;61.90;;;;;;5080610;28;20499;-70
2021/08/30 09:10:14;;;;;;;14.27;10.07;;;16.20;64.10;;;;;;5080348;28;20101;-70
2021/08/30 09:12:42;;;;;;;14.93;10.50;;;16.20;60.60;;;;;;5079320;28;20077;-71
2021/08/30 09:15:13;;;;;;;12.80;9.38;;;16.00;64.20;;;;;;5080025;28;20044;-71
2021/08/30 09:17:49;;;;;;;12.77;10.60;;;15.90;62.00;;;;;;5084243;28;20067;-71
2021/08/30 09:20:18;;;;;;;14.57;10.48;;;15.90;62.90;;;;;;5081127;28;20851;-70
2021/08/30 09:22:47;;;;;;;11.63;10.02;;;15.70;62.70;;;;;;5069284;28;20075;-70
2021/08/30 09:25:18;;;;;;;12.98;10.57;;;15.80;64.00;;;;;;5082203;28;20036;-70
2021/08/30 09:27:50;;;;;;;14.13;10.88;;;15.70;63.20;;;;;;5081781;28;20063;-70
2021/08/30 09:30:28;;;;;;;14.32;10.85;;;15.60;64.20;;;;;;5081332;28;20054;-70
2021/08/30 09:32:56;;;;;;;15.52;11.32;;;15.60;62.60;;;;;;5081458;28;20495;-71
2021/08/30 09:35:26;;;;;;;13.25;10.70;;;15.60;65.00;;;;;;5081258;28;20407;-70
2021/08/30 09:37:55;;;;;;;14.35;11.15;;;15.60;65.90;;;;;;5084929;28;20083;-70
2021/08/30 09:40:27;;;;;;;14.80;11.65;;;15.50;65.60;;;;;;5067603;28;20439;-70
2021/08/30 09:42:57;;;;;;;15.98;12.20;;;15.50;66.80;;;;;;5079443;28;20071;-70
2021/08/30 09:45:29;;;;;;;15.50;12.38;;;15.60;67.70;;;;;;5079069;28;20040;-70
2021/08/30 09:47:59;;;;;;;15.52;11.85;;;15.60;66.80;;;;;;5066558;28;20059;-70
2021/08/30 09:50:29;;;;;;;17.30;12.27;;;15.60;65.80;;;;;;5081423;28;20094;-70
2021/08/30 09:52:58;;;;;;;17.35;12.38;;;15.60;65.30;;;;;;5081761;28;20044;-69
2021/08/30 09:55:26;;;;;;;14.75;12.38;;;15.60;62.60;;;;;;5081738;28;20692;-69
2021/08/30 09:57:56;;;;;;;13.95;11.52;;;15.60;63.30;;;;;;5082607;28;20037;-69
2021/08/30 10:00:24;;;;;;;13.35;10.50;;;15.70;63.60;;;;;;5080370;28;20060;-69
2021/08/30 10:02:58;;;;;;;12.52;10.40;;;15.70;61.40;;;;;;5068819;28;20044;-71
2021/08/30 10:05:28;;;;;;;14.48;11.00;;;15.70;61.20;;;;;;5079660;28;20036;-71
2021/08/30 10:08:00;;;;;;;13.73;11.57;;;15.70;62.10;;;;;;5081027;28;20097;-70
2021/08/30 10:10:29;;;;;;;19.30;13.77;;;15.70;60.10;;;;;;5082591;28;20084;-71
2021/08/30 10:12:58;;;;;;;22.13;14.60;;;15.70;62.20;;;;;;5082216;28;20051;-72
2021/08/30 10:15:27;;;;;;;17.23;12.05;;;15.60;62.70;;;;;;5077359;28;20064;-71
2021/08/30 10:17:57;;;;;;;16.92;12.35;;;15.60;62.80;;;;;;5079227;28;20251;-70
2021/08/30 10:20:27;;;;;;;15.18;10.95;;;15.70;63.90;;;;;;5082827;28;20044;-70
2021/08/30 10:23:11;;;;;;;17.00;12.38;;;15.70;62.00;;;;;;5083418;28;20083;-70
2021/08/30 10:25:40;;;;;;;16.50;12.10;;;15.80;62.90;;;;;;5061217;28;20067;-71
2021/08/30 10:28:10;;;;;;;13.93;12.40;;;15.80;62.70;;;;;;5065087;28;20056;-71
2021/08/30 10:30:52;;;;;;;16.77;13.90;;;15.80;62.80;;;;;;5050252;28;20135;-71
2021/08/30 10:33:24;;;;;;;18.23;11.88;;;15.90;63.70;;;;;;5079969;28;20040;-71
2021/08/30 10:35:53;;;;;;;15.02;12.82;;;15.80;64.60;;;;;;5080351;28;20048;-71
2021/08/30 10:38:22;;;;;;;16.13;12.80;;;15.80;64.10;;;;;;5078459;28;20132;-71
2021/08/30 10:40:52;;;;;;;15.85;11.30;;;15.80;63.30;;;;;;5076677;28;20048;-71
2021/08/30 10:43:23;;;;;;;12.25;10.38;;;15.90;63.00;;;;;;5084529;28;20824;-71
2021/08/30 10:45:56;;;;;;;12.95;9.95;;;15.90;64.10;;;;;;5080412;28;20047;-72
2021/08/30 10:48:34;;;;;;;9.60;8.43;;;15.80;62.80;;;;;;5078316;28;20044;-70
2021/08/30 10:51:13;;;;;;;10.48;7.88;;;16.00;61.50;;;;;;5081704;28;20097;-70
2021/08/30 10:53:42;;;;;;;9.07;7.95;;;16.10;56.60;;;;;;5082028;28;20336;-70
2021/08/30 10:56:10;;;;;;;10.30;8.60;;;16.10;56.80;;;;;;5079222;28;20044;-70
2021/08/30 10:58:48;;;;;;;12.20;10.27;;;16.30;57.20;;;;;;5081561;28;20453;-70
2021/08/30 11:01:16;;;;;;;12.88;10.18;;;16.40;58.90;;;;;;5080329;28;20470;-70
2021/08/30 11:03:54;;;;;;;9.02;8.10;;;16.60;58.40;;;;;;5079527;28;20549;-71
2021/08/30 11:06:23;;;;;;;11.48;9.30;;;16.40;55.80;;;;;;5058766;28;20167;-70
2021/08/30 11:08:51;;;;;;;13.35;10.88;;;16.30;52.20;;;;;;5079384;28;20048;-71
2021/08/30 11:11:27;;;;;;;12.85;9.10;;;16.60;58.10;;;;;;5081762;28;21587;-71
2021/08/30 11:14:16;;;;;;;13.13;9.35;;;16.60;54.50;;;;;;5081324;28;20055;-71
2021/08/30 11:16:44;;;;;;;10.77;9.38;;;16.60;56.30;;;;;;5078307;28;20103;-71
2021/08/30 11:19:14;;;;;;;10.15;8.75;;;16.60;55.30;;;;;;5079212;28;20419;-69
2021/08/30 11:21:46;;;;;;;12.05;9.75;;;16.60;54.50;;;;;;5081310;28;20101;-69
2021/08/30 11:24:33;;;;;;;12.23;9.50;;;16.70;55.40;;;;;;5081255;28;20052;-71
2021/08/30 11:27:05;;;;;;;11.25;9.30;;;16.70;56.20;;;;;;5079243;28;20139;-70
2021/08/30 11:29:34;;;;;;;12.32;9.38;;;16.80;56.60;;;;;;5075858;28;20052;-70
2021/08/30 11:32:04;;;;;;;12.13;8.85;;;16.90;51.60;;;;;;5064217;28;20063;-71
2021/08/30 11:34:37;;;;;;;12.30;9.07;;;16.80;52.00;;;;;;5075686;28;20094;-69
2021/08/30 11:37:10;;;;;;;10.27;8.90;;;16.80;50.80;;;;;;5077307;28;20051;-69
2021/08/30 11:39:41;;;;;;;12.75;9.40;;;16.80;51.40;;;;;;5076064;28;20156;-69
2021/08/30 11:42:11;;;;;;;12.95;10.15;;;16.70;50.30;;;;;;5082273;28;20060;-69
2021/08/30 11:44:41;;;;;;;13.73;9.65;;;16.70;50.60;;;;;;5079303;28;20052;-70
2021/08/30 11:47:11;;;;;;;13.70;10.07;;;16.60;50.20;;;;;;5080214;28;20040;-69
2021/08/30 11:49:43;;;;;;;13.05;10.40;;;16.60;51.20;;;;;;5075134;28;20071;-73
2021/08/30 11:52:13;;;;;;;13.20;10.30;;;16.50;54.80;;;;;;5076235;28;20048;-69
2021/08/30 11:54:58;;;;;;;14.57;10.90;;;16.50;55.30;;;;;;5075044;28;20055;-69
2021/08/30 11:57:37;;;;;;;13.70;10.95;;;16.40;57.90;;;;;;5081314;28;20043;-69
2021/08/30 12:00:06;;;;;;;13.50;10.48;;;16.30;55.80;;;;;;5080201;28;21246;-70
2021/08/30 12:02:35;;;;;;;12.90;10.18;;;16.30;59.00;;;;;;5061749;28;20060;-71
2021/08/30 12:05:06;;;;;;;14.18;11.35;;;16.20;56.60;;;;;;5077061;28;20040;-72
2021/08/30 12:07:35;;;;;;;14.13;10.88;;;16.20;58.40;;;;;;5083584;28;20492;-71
2021/08/30 12:10:07;;;;;;;13.20;10.50;;;16.00;56.40;;;;;;5075022;28;20055;-71
2021/08/30 12:12:50;;;;;;;12.80;10.88;;;16.00;59.50;;;;;;5075706;28;20064;-72
2021/08/30 12:15:20;;;;;;;14.90;11.82;;;15.90;62.90;;;;;;5077937;28;20048;-71
2021/08/30 12:17:50;;;;;;;15.02;11.55;;;15.70;64.70;;;;;;5080135;28;20056;-71
2021/08/30 12:20:24;;;;;;;16.90;12.20;;;15.70;64.20;;;;;;5076051;28;20048;-72
2021/08/30 12:23:01;;;;;;;17.67;12.05;;;15.70;64.80;;;;;;5078837;28;20041;-71
2021/08/30 12:25:30;;;;;;;15.45;12.45;;;15.60;64.20;;;;;;5076548;28;20048;-71
2021/08/30 12:27:59;;;;;;;21.55;13.48;;;15.60;67.50;;;;;;5079648;28;20066;-71
2021/08/30 12:30:29;;;;;;;13.68;10.82;;;15.40;69.90;;;;;;5079771;28;20457;-71
2021/08/30 12:33:06;;;;;;;14.52;11.88;;;15.20;66.80;;;;;;5082462;28;20093;-71
2021/08/30 12:35:37;;;;;;;15.85;11.82;;;15.40;68.20;;;;;;5069995;28;20044;-72
2021/08/30 12:38:07;;;;;;;15.85;12.27;;;15.50;66.20;;;;;;5079921;28;20491;-72
2021/08/30 12:40:36;;;;;;;16.98;12.68;;;15.60;66.80;;;;;;5082491;28;20503;-72
2021/08/30 12:43:05;;;;;;;16.25;12.40;;;15.80;67.60;;;;;;5085859;28;20131;-72
2021/08/30 12:45:34;;;;;;;14.77;11.75;;;15.90;66.00;;;;;;5077972;28;20577;-72